South Vienna, Ohio
Current Conditions -  °F | °C
As of 10:35 PM on Monday 20 Oct 2014 (Local Time) from KUYF Reporting Station
Haze Haze  
Wind Chill: 41°   Ceiling: Unl
Heat Index: 45°   Visibility: 2.5mi
Dew Point: 45°   Wind: 6mph
Humidity: 100%   Direction: 250°WSW
Pressure: 29.88"   Gusts: NA
Location:  39.93°N, 83.61°W
Report Text: KUYF 210235Z AUTO 25005KT 2 1/2SM BR CLR 07/07 A2988 RMK AO2 LTG DSNT S AND SW
Loading
Personal Weather Stations






























Interactive Weather Map
Tropical Storm Tracking
New forecast layout! Learn more

10-Day Weather Forecast

Advertisements
Track Severe Weather on mobile